createdAt,value
2023-01-06T06:39:44.279Z,4.53
2023-01-06T06:44:46.357Z,3.83
2023-01-06T06:49:48.416Z,3.12
2023-01-06T06:54:50.480Z,4.07
2023-01-06T06:59:52.523Z,3.43
2023-01-06T07:04:54.557Z,3.72
2023-01-06T07:09:56.584Z,3.37
2023-01-06T07:14:58.673Z,4.83
2023-01-06T07:20:00.826Z,3.05
2023-01-06T07:25:02.937Z,3.05
2023-01-06T07:30:05.888Z,5.43
2023-01-06T07:35:08.473Z,6.00
2023-01-06T07:40:11.187Z,3.00
2023-01-06T07:45:13.441Z,6.68
2023-01-06T07:50:15.507Z,3.70
2023-01-06T07:55:17.555Z,3.53
2023-01-06T08:00:20.270Z,3.50
2023-01-06T08:05:22.499Z,4.10
2023-01-06T08:10:24.681Z,3.15
2023-01-06T08:15:26.962Z,3.00
2023-01-06T08:20:29.076Z,2.80
2023-01-06T08:25:31.168Z,2.50
2023-01-06T08:30:39.801Z,3.10
2023-01-06T08:35:43.513Z,3.65
2023-01-06T08:40:45.671Z,4.20
2023-01-06T08:45:48.021Z,3.03
2023-01-06T08:50:50.082Z,2.75
2023-01-06T08:55:52.123Z,2.83
2023-01-06T09:00:54.278Z,2.37
2023-01-06T09:05:57.484Z,3.87
2023-01-06T09:11:05.429Z,3.00
2023-01-06T09:16:09.403Z,2.87
2023-01-06T09:21:11.502Z,2.72
2023-01-06T09:26:14.860Z,5.10
2023-01-06T09:31:18.415Z,7.17
2023-01-06T09:36:20.707Z,2.70
2023-01-06T09:41:28.743Z,3.28
2023-01-06T09:46:35.104Z,2.77
2023-01-06T09:51:38.422Z,2.53
2023-01-06T09:56:44.096Z,2.12
2023-01-06T10:01:49.220Z,3.80
2023-01-06T10:07:17.625Z,2.77
2023-01-06T10:12:23.070Z,5.15
2023-01-06T10:17:58.773Z,2.20
2023-01-06T10:23:26.245Z,2.60
2023-01-06T10:28:32.695Z,5.30
2023-01-06T10:33:40.382Z,4.57
2023-01-06T10:38:46.089Z,4.73
2023-01-06T10:43:48.356Z,3.00
2023-01-06T10:48:52.141Z,2.65
2023-01-06T10:53:58.122Z,4.13
2023-01-06T10:59:09.921Z,3.10
2023-01-06T11:04:13.510Z,2.95
2023-01-06T11:09:27.145Z,2.60
2023-01-06T11:14:32.697Z,3.33
2023-01-06T11:19:43.501Z,2.70
2023-01-06T11:24:53.127Z,5.05
2023-01-06T11:29:55.453Z,4.40
2023-01-06T11:35:00.737Z,2.42
2023-01-06T11:40:29.938Z,4.75
2023-01-06T11:45:35.433Z,2.83
2023-01-06T11:50:37.700Z,3.03
2023-01-06T11:55:39.848Z,2.20
2023-01-06T12:00:46.360Z,3.00
2023-01-06T12:06:08.647Z,1.77
2023-01-06T12:11:16.743Z,5.25
2023-01-06T12:16:35.862Z,3.30
2023-01-06T12:21:39.149Z,3.00
2023-01-06T12:26:43.790Z,3.12
2023-01-06T12:32:02.558Z,3.17
2023-01-06T12:37:31.877Z,3.33
2023-01-06T12:42:50.702Z,9.60
2023-01-06T12:47:56.180Z,4.72
2023-01-06T12:53:26.879Z,4.03
2023-01-06T12:58:47.964Z,4.00
2023-01-06T13:04:13.054Z,3.20
2023-01-06T13:09:15.104Z,4.15
2023-01-06T13:14:52.352Z,3.83
2023-01-06T13:19:57.951Z,3.70
2023-01-06T13:25:20.155Z,5.18
2023-01-06T13:30:48.165Z,3.27
2023-01-06T13:36:08.631Z,7.43
2023-01-06T13:41:16.567Z,5.65
2023-01-06T13:46:21.905Z,3.12
2023-01-06T13:51:29.455Z,4.20
2023-01-06T13:56:35.907Z,5.65
2023-01-06T14:01:38.064Z,5.10
2023-01-06T14:06:40.850Z,4.60
2023-01-06T14:11:43.051Z,4.50
2023-01-06T14:16:49.014Z,7.68
2023-01-06T14:21:54.414Z,4.53
2023-01-06T14:27:02.626Z,5.57
2023-01-06T14:32:04.921Z,5.82
2023-01-06T14:37:13.221Z,6.03
2023-01-06T14:42:20.649Z,9.90
2023-01-06T14:47:38.490Z,7.07
2023-01-06T14:52:53.556Z,5.07
2023-01-06T14:57:56.284Z,6.23
2023-01-06T15:03:21.033Z,9.50
2023-01-06T15:08:23.497Z,8.48
2023-01-06T15:13:31.774Z,7.20
2023-01-06T15:18:34.976Z,15.03
2023-01-06T15:23:43.668Z,9.50
2023-01-06T15:29:04.681Z,11.23
2023-01-06T15:34:11.359Z,8.47
2023-01-06T15:39:23.603Z,9.45
2023-01-06T15:44:31.505Z,9.48
2023-01-06T15:49:40.868Z,12.97
2023-01-06T15:54:45.305Z,9.63
2023-01-06T15:59:57.267Z,13.15
2023-01-06T16:05:00.851Z,13.67
2023-01-06T16:10:03.276Z,10.33
2023-01-06T16:15:56.581Z,8.88
2023-01-06T16:21:00.396Z,8.63
2023-01-06T16:26:05.460Z,12.33
2023-01-06T16:31:13.345Z,9.35
2023-01-06T16:36:17.454Z,13.18
2023-01-06T16:41:20.005Z,12.27
2023-01-06T16:46:27.199Z,12.45
2023-01-06T16:51:29.498Z,16.73
2023-01-06T16:56:31.618Z,13.67
2023-01-06T17:01:35.437Z,13.23
2023-01-06T17:06:40.065Z,10.52
2023-01-06T17:11:42.139Z,15.57
2023-01-06T17:16:44.720Z,16.13
2023-01-06T17:21:48.723Z,14.57
2023-01-06T17:27:16.843Z,12.80
2023-01-06T17:32:28.754Z,18.47
2023-01-06T17:37:30.912Z,16.08
2023-01-06T17:42:34.003Z,14.90
2023-01-06T17:47:46.280Z,13.53
2023-01-06T17:53:08.415Z,15.13
2023-01-06T17:58:19.177Z,14.65
2023-01-06T18:03:31.113Z,14.45
2023-01-06T18:08:36.324Z,16.43
2023-01-06T18:13:40.467Z,17.62
2023-01-06T18:18:42.639Z,16.23
2023-01-06T18:23:47.164Z,21.77
2023-01-06T18:28:49.547Z,16.27
2023-01-06T18:33:51.756Z,19.48
2023-01-06T18:38:55.261Z,22.67
2023-01-06T18:43:57.381Z,21.33
2023-01-06T18:48:59.475Z,15.27
2023-01-06T18:54:01.808Z,19.30
2023-01-06T18:59:12.965Z,15.43
2023-01-06T19:04:32.861Z,18.62
2023-01-06T19:09:35.921Z,18.50
2023-01-06T19:14:43.208Z,19.77
2023-01-06T19:19:45.668Z,24.65
2023-01-06T19:24:47.676Z,20.08
2023-01-06T19:29:52.193Z,19.60
2023-01-06T19:34:55.736Z,18.93
2023-01-06T19:39:58.087Z,16.62
2023-01-06T19:45:08.931Z,19.60
2023-01-06T19:50:22.917Z,19.73
2023-01-06T19:55:27.962Z,20.45
2023-01-06T20:00:47.847Z,20.62
2023-01-06T20:05:49.983Z,20.00
2023-01-06T20:10:52.334Z,22.70
2023-01-06T20:15:54.530Z,26.37
2023-01-06T20:20:56.725Z,19.17
2023-01-06T20:25:58.908Z,23.63
2023-01-06T20:31:01.012Z,18.12
2023-01-06T20:36:03.368Z,21.40
2023-01-06T20:41:05.683Z,24.10
2023-01-06T20:46:07.914Z,23.73
2023-01-06T20:51:10.364Z,24.95
2023-01-06T20:56:12.482Z,27.97
2023-01-06T21:01:14.737Z,22.42
2023-01-06T21:06:16.901Z,25.17
2023-01-06T21:11:18.974Z,23.07
2023-01-06T21:16:22.650Z,22.77
2023-01-06T21:21:24.927Z,24.23
2023-01-06T21:26:27.225Z,22.00
2023-01-06T21:31:29.334Z,27.27
2023-01-06T21:36:31.456Z,24.58
2023-01-06T21:41:52.436Z,23.50
2023-01-06T21:46:57.552Z,26.40
2023-01-06T21:52:02.420Z,23.77
